Time;durP1;ratioP1;P1;durP2;ratioP2;P2;SDS_P1;SDS_P2;PMS_P1;PMS_P2;Temp;Humidity;BMP_temperature;BMP_pressure;BME280_temperature;BME280_humidity;BME280_pressure;Samples;Min_cycle;Max_cycle;Signal;HPM_P1;HPM_P2
2022/06/05 06:05:40;;;;;;;;;;;;;;;26.19;100.00;98401.06;5875195;23;19966;-71
2022/06/05 06:08:08;;;;;;;;;;;;;;;26.33;100.00;98402.31;4902741;29;19956;-71
2022/06/05 06:10:36;;;;;;;;;;;;;;;26.44;100.00;98413.91;4902150;29;19954;-72
2022/06/05 06:13:03;;;;;;;;;;;;;;;26.29;100.00;98398.88;5136406;23;20262;-71
2022/06/05 06:15:30;;;;;;;;;;;;;;;26.51;100.00;98394.19;4884034;29;19951;-71
2022/06/05 06:17:57;;;;;;;;;;;;;;;26.55;100.00;98393.97;4901978;29;19957;-72
2022/06/05 06:20:24;;;;;;;;;;;;;;;26.66;100.00;98394.09;4896462;29;20272;-74
2022/06/05 06:22:52;;;;;;;;;;;;;;;26.42;100.00;98397.22;4901086;29;20458;-72
2022/06/05 06:25:19;;;;;;;;;;;;;;;26.64;100.00;98394.59;4881716;29;19956;-70
2022/06/05 06:27:46;;;;;;;;;;;;;;;26.60;100.00;98396.13;4896283;29;19948;-72
2022/06/05 06:30:13;;;;;;;;;;;;;;;26.55;100.00;98386.16;4897683;29;20372;-72
2022/06/05 06:32:41;;;;;;;;;;;;;;;26.57;100.00;98394.25;4899978;29;19953;-72
2022/06/05 06:35:08;;;;;;;;;;;;;;;26.42;100.00;98390.69;4901019;29;19961;-71
2022/06/05 06:37:35;;;;;;;;;;;;;;;26.41;100.00;98392.75;4899661;29;19960;-71
2022/06/05 06:40:03;;;;;;;;;;;;;;;26.41;100.00;98401.34;4900878;29;19968;-71
2022/06/05 06:42:30;;;;;;;;;;;;;;;26.16;100.00;98401.31;4900948;29;19959;-72
2022/06/05 06:44:58;;;;;;;;;;;;;;;26.23;100.00;98398.00;4899841;29;19952;-72
2022/06/05 06:47:25;;;;;;;;;;;;;;;26.08;100.00;98392.31;4899500;29;20371;-74
2022/06/05 06:49:52;;;;;;;;;;;;;;;25.96;100.00;98397.09;4901089;29;20247;-72
2022/06/05 06:52:20;;;;;;;;;;;;;;;25.82;100.00;98394.28;4894420;29;19950;-73
2022/06/05 06:54:48;;;;;;;;;;;;;;;25.63;100.00;98393.72;4894624;29;19963;-71
2022/06/05 06:57:16;;;;;;;;;;;;;;;25.57;100.00;98381.41;4894011;29;19955;-72
2022/06/05 06:59:44;;;;;;;;;;;;;;;25.42;100.00;98374.88;4899863;29;20362;-72
2022/06/05 07:02:11;;;;;;;;;;;;;;;25.29;100.00;98386.66;4899028;29;19964;-72
2022/06/05 07:04:38;;;;;;;;;;;;;;;25.43;100.00;98376.47;4897465;29;20253;-72
2022/06/05 07:07:06;;;;;;;;;;;;;;;25.34;100.00;98373.72;4899686;29;19961;-72
2022/06/05 07:09:33;;;;;;;;;;;;;;;24.94;100.00;98374.34;4879790;29;19960;-72
2022/06/05 07:12:00;;;;;;;;;;;;;;;25.11;100.00;98366.84;4901603;29;20385;-72
2022/06/05 07:14:28;;;;;;;;;;;;;;;25.09;100.00;98365.75;4903154;29;19960;-72
2022/06/05 07:16:55;;;;;;;;;;;;;;;25.27;100.00;98366.31;4902520;29;19957;-72
2022/06/05 07:19:23;;;;;;;;;;;;;;;25.49;100.00;98365.91;4900782;29;19955;-71
2022/06/05 07:21:50;;;;;;;;;;;;;;;25.46;100.00;98354.69;4901864;29;20273;-72
2022/06/05 07:24:17;;;;;;;;;;;;;;;25.45;100.00;98359.63;4904582;29;19954;-71
2022/06/05 07:26:45;;;;;;;;;;;;;;;25.22;100.00;98349.84;4904286;29;20218;-72
2022/06/05 07:29:12;;;;;;;;;;;;;;;25.19;100.00;98347.97;4904380;29;19949;-72
2022/06/05 07:31:39;;;;;;;;;;;;;;;25.22;100.00;98341.25;4886705;29;20242;-71
2022/06/05 07:34:08;;;;;;;;;;;;;;;25.25;100.00;98334.56;4903721;29;19958;-71
2022/06/05 07:36:36;;;;;;;;;;;;;;;25.23;100.00;98330.59;4904579;29;19956;-71
2022/06/05 07:39:03;;;;;;;;;;;;;;;25.24;100.00;98332.97;4903576;29;19959;-72
2022/06/05 07:41:33;;;;;;;;;;;;;;;25.36;100.00;98334.72;4886856;29;20428;-71
2022/06/05 07:44:01;;;;;;;;;;;;;;;25.39;100.00;98335.78;4903835;29;19955;-71
2022/06/05 07:46:29;;;;;;;;;;;;;;;25.46;100.00;98326.06;4903175;29;19964;-71
2022/06/05 07:48:56;;;;;;;;;;;;;;;25.72;100.00;98324.88;4902469;29;19963;-72
2022/06/05 07:54:27;;;;;;;;;;;;;;;25.82;100.00;98319.78;4903401;29;20363;-72
2022/06/05 07:56:56;;;;;;;;;;;;;;;25.52;100.00;98316.25;4902868;29;19957;-72
2022/06/05 07:59:25;;;;;;;;;;;;;;;25.57;100.00;98306.16;4903696;29;19951;-71
2022/06/05 08:01:56;;;;;;;;;;;;;;;25.68;100.00;98314.91;4902960;29;19965;-72
2022/06/05 08:04:24;;;;;;;;;;;;;;;25.62;100.00;98314.03;4902991;29;20322;-72
2022/06/05 08:06:53;;;;;;;;;;;;;;;25.85;100.00;98310.97;4900746;29;19950;-72
2022/06/05 08:09:20;;;;;;;;;;;;;;;25.76;100.00;98308.25;4900301;29;19959;-72
2022/06/05 08:11:48;;;;;;;;;;;;;;;25.76;100.00;98311.13;4902224;29;20229;-72
2022/06/05 08:14:15;;;;;;;;;;;;;;;25.73;100.00;98311.31;4896429;29;19956;-72
2022/06/05 08:16:46;;;;;;;;;;;;;;;25.69;100.00;98316.47;4899393;29;19952;-73
2022/06/05 08:19:15;;;;;;;;;;;;;;;25.54;100.00;98321.47;4897675;29;20234;-72
2022/06/05 08:21:42;;;;;;;;;;;;;;;25.32;100.00;98331.28;4897257;29;19971;-71
2022/06/05 08:24:09;;;;;;;;;;;;;;;25.25;100.00;98333.75;4904927;29;20366;-72
2022/06/05 08:26:37;;;;;;;;;;;;;;;25.10;100.00;98327.25;4891166;29;19957;-73
2022/06/05 08:29:04;;;;;;;;;;;;;;;25.06;100.00;98320.97;4901251;29;19951;-74
2022/06/05 08:31:33;;;;;;;;;;;;;;;24.97;100.00;98321.84;4902616;29;19947;-74
2022/06/05 08:34:03;;;;;;;;;;;;;;;24.93;100.00;98329.06;4902636;29;19947;-74
2022/06/05 08:36:31;;;;;;;;;;;;;;;24.88;100.00;98327.69;4902271;29;19954;-74
2022/06/05 08:41:56;;;;;;;;;;;;;;;25.11;100.00;98329.66;4902036;29;19968;-74
2022/06/05 08:44:26;;;;;;;;;;;;;;;25.27;100.00;98334.84;4902146;29;19946;-74
2022/06/05 08:47:01;;;;;;;;;;;;;;;25.21;100.00;98336.03;4902471;29;19964;-73
2022/06/05 08:49:31;;;;;;;;;;;;;;;25.34;100.00;98348.75;4898184;29;20370;-73
2022/06/05 08:52:19;;;;;;;;;;;;;;;25.43;100.00;98362.94;4911374;29;19959;-73
2022/06/05 08:54:53;;;;;;;;;;;;;;;25.36;100.00;98360.47;4907616;29;19952;-74
2022/06/05 08:57:24;;;;;;;;;;;;;;;25.57;100.00;98363.44;4908289;29;19962;-74
2022/06/05 09:00:03;;;;;;;;;;;;;;;25.57;100.00;98352.78;4903758;29;19951;-73
2022/06/05 09:02:33;;;;;;;;;;;;;;;25.50;100.00;98344.59;4907307;29;20284;-73
2022/06/05 09:05:06;;;;;;;;;;;;;;;25.64;100.00;98345.84;4909406;29;19959;-73
2022/06/05 09:07:44;;;;;;;;;;;;;;;25.65;100.00;98347.41;4884128;29;19951;-74
2022/06/05 09:10:15;;;;;;;;;;;;;;;25.91;100.00;98356.91;4884851;29;19959;-74
2022/06/05 09:12:48;;;;;;;;;;;;;;;26.16;100.00;98364.84;4901242;29;19971;-73
2022/06/05 09:15:21;;;;;;;;;;;;;;;26.10;100.00;98358.19;4901643;29;19960;-74
2022/06/05 09:17:54;;;;;;;;;;;;;;;26.39;100.00;98363.81;4902296;29;19958;-73
2022/06/05 09:20:38;;;;;;;;;;;;;;;26.40;100.00;98364.59;4902440;29;19951;-73
2022/06/05 09:23:09;;;;;;;;;;;;;;;26.33;100.00;98374.44;4898944;29;20268;-74
2022/06/05 09:25:49;;;;;;;;;;;;;;;26.56;100.00;98369.72;4904191;29;19951;-73
2022/06/05 09:28:17;;;;;;;;;;;;;;;26.61;100.00;98369.78;4895741;29;19963;-74
2022/06/05 09:30:45;;;;;;;;;;;;;;;26.58;100.00;98367.94;4902635;29;19960;-74
2022/06/05 09:33:18;;;;;;;;;;;;;;;26.78;100.00;98361.38;4886096;29;19953;-74
2022/06/05 09:35:50;;;;;;;;;;;;;;;26.71;100.00;98364.69;4903115;29;20251;-73
2022/06/05 09:38:18;;;;;;;;;;;;;;;26.93;100.00;98369.88;4903241;29;19952;-73
2022/06/05 09:41:03;;;;;;;;;;;;;;;26.95;100.00;98367.31;4901429;29;20372;-73
2022/06/05 09:43:43;;;;;;;;;;;;;;;27.00;100.00;98366.56;4894736;29;19975;-73
2022/06/05 09:46:23;;;;;;;;;;;;;;;27.04;100.00;98361.41;4911301;29;19962;-73
2022/06/05 09:48:50;;;;;;;;;;;;;;;27.13;100.00;98350.53;4900275;29;20576;-73
2022/06/05 09:51:18;;;;;;;;;;;;;;;27.30;100.00;98350.66;4900912;29;19982;-73
2022/06/05 09:53:49;;;;;;;;;;;;;;;27.37;100.00;98350.19;4903390;29;19951;-73
2022/06/05 09:56:16;;;;;;;;;;;;;;;27.18;100.00;98334.63;4880445;29;20225;-73
2022/06/05 09:58:56;;;;;;;;;;;;;;;27.35;100.00;98349.91;4883808;29;19956;-73
2022/06/05 10:01:28;;;;;;;;;;;;;;;27.49;100.00;98346.13;4897875;29;19974;-72
2022/06/05 10:03:57;;;;;;;;;;;;;;;27.47;100.00;98342.97;4902235;29;19958;-72
2022/06/05 10:06:24;;;;;;;;;;;;;;;27.58;100.00;98330.78;4901378;29;19959;-72
2022/06/05 10:09:08;;;;;;;;;;;;;;;27.69;100.00;98325.09;4899809;29;19954;-73
2022/06/05 10:11:48;;;;;;;;;;;;;;;27.78;100.00;98327.78;4901309;29;19952;-73
2022/06/05 10:14:28;;;;;;;;;;;;;;;27.64;100.00;98322.97;4901582;29;20365;-73
2022/06/05 10:17:10;;;;;;;;;;;;;;;27.64;100.00;98323.78;4890073;29;20260;-72
2022/06/05 10:19:41;;;;;;;;;;;;;;;27.93;100.00;98311.91;4901518;29;19952;-72
2022/06/05 10:22:13;;;;;;;;;;;;;;;27.94;100.00;98312.72;4900705;29;19968;-72
2022/06/05 10:24:50;;;;;;;;;;;;;;;27.97;100.00;98315.31;4894728;29;19960;-72
2022/06/05 10:27:18;;;;;;;;;;;;;;;27.94;100.00;98313.50;4900640;29;19962;-72
2022/06/05 10:29:49;;;;;;;;;;;;;;;27.97;100.00;98308.81;4901728;29;19951;-72
2022/06/05 10:32:40;;;;;;;;;;;;;;;27.98;100.00;98308.28;4902159;29;19964;-72
2022/06/05 10:35:30;;;;;;;;;;;;;;;27.96;100.00;98305.16;4892449;29;19962;-72
2022/06/05 10:38:06;;;;;;;;;;;;;;;27.84;100.00;98302.72;4901815;29;19949;-72
2022/06/05 10:40:33;;;;;;;;;;;;;;;27.64;100.00;98285.63;4901856;29;19959;-72
2022/06/05 10:43:16;;;;;;;;;;;;;;;27.67;100.00;98285.41;4895854;29;19969;-72
2022/06/05 10:45:51;;;;;;;;;;;;;;;27.83;100.00;98278.94;4889968;29;19960;-72
2022/06/05 10:48:24;;;;;;;;;;;;;;;27.84;100.00;98282.59;4901152;29;20238;-72
2022/06/05 10:51:02;;;;;;;;;;;;;;;27.83;100.00;98278.16;4901630;29;19955;-72
2022/06/05 10:53:40;;;;;;;;;;;;;;;27.78;100.00;98282.56;4900954;29;19952;-72
2022/06/05 10:56:23;;;;;;;;;;;;;;;27.93;100.00;98279.50;4900021;29;19965;-73
2022/06/05 10:58:56;;;;;;;;;;;;;;;28.07;100.00;98287.19;4901109;29;19954;-73
2022/06/05 11:01:45;;;;;;;;;;;;;;;28.12;100.00;98283.56;4898932;29;20384;-73
2022/06/05 11:04:31;;;;;;;;;;;;;;;28.17;100.00;98274.13;4899478;29;19960;-73
2022/06/05 11:06:58;;;;;;;;;;;;;;;28.28;100.00;98267.63;4901922;29;19960;-73
2022/06/05 11:09:26;;;;;;;;;;;;;;;28.44;100.00;98276.31;4904145;29;19955;-73
2022/06/05 11:14:57;;;;;;;;;;;;;;;28.66;100.00;98269.06;4899347;29;20224;-73
2022/06/05 11:17:40;;;;;;;;;;;;;;;28.67;100.00;98262.00;4901380;29;19955;-73
2022/06/05 11:20:08;;;;;;;;;;;;;;;28.83;100.00;98269.88;4901050;29;19961;-72
2022/06/05 11:22:38;;;;;;;;;;;;;;;28.76;100.00;98265.41;4901811;29;19975;-72
2022/06/05 11:25:10;;;;;;;;;;;;;;;28.94;100.00;98270.66;4901437;29;19959;-72
2022/06/05 11:27:53;;;;;;;;;;;;;;;29.15;100.00;98271.94;4900973;29;19959;-72
2022/06/05 11:30:39;;;;;;;;;;;;;;;29.18;100.00;98270.09;4897435;29;19952;-72
2022/06/05 11:33:13;;;;;;;;;;;;;;;29.19;100.00;98263.09;4901034;29;19959;-72
2022/06/05 11:35:59;;;;;;;;;;;;;;;29.44;100.00;98284.25;4901129;29;19954;-73
2022/06/05 11:38:35;;;;;;;;;;;;;;;29.51;100.00;98275.88;4898662;29;19951;-72
2022/06/05 11:41:13;;;;;;;;;;;;;;;29.26;100.00;98286.38;4899941;29;19952;-73
2022/06/05 11:43:41;;;;;;;;;;;;;;;29.04;100.00;98276.94;4898099;29;19967;-73
2022/06/05 11:46:30;;;;;;;;;;;;;;;29.20;100.00;98279.81;4899397;29;19954;-73
2022/06/05 11:49:19;;;;;;;;;;;;;;;29.18;100.00;98270.91;4892461;29;19962;-73
2022/06/05 11:52:19;;;;;;;;;;;;;;;29.26;100.00;98289.25;4892834;29;19955;-73
2022/06/05 11:54:55;;;;;;;;;;;;;;;29.09;100.00;98291.34;4860224;29;19948;-73
2022/06/05 11:57:41;;;;;;;;;;;;;;;28.99;100.00;98287.16;4900780;29;19953;-73
2022/06/05 12:00:15;;;;;;;;;;;;;;;29.14;100.00;98284.78;4900720;29;20257;-73
2022/06/05 12:02:48;;;;;;;;;;;;;;;29.12;100.00;98286.63;4898255;29;19966;-73
2022/06/05 12:05:24;;;;;;;;;;;;;;;29.03;100.00;98292.63;4900746;29;19952;-73
2022/06/05 12:07:58;;;;;;;;;;;;;;;29.01;100.00;98286.59;4901518;29;19959;-73
2022/06/05 12:10:28;;;;;;;;;;;;;;;28.83;100.00;98285.03;4903032;29;19958;-73
2022/06/05 12:13:18;;;;;;;;;;;;;;;28.72;100.00;98287.13;4904215;29;19971;-73
2022/06/05 12:15:46;;;;;;;;;;;;;;;28.79;100.00;98287.38;4904291;29;20032;-73
2022/06/05 12:18:21;;;;;;;;;;;;;;;28.56;100.00;98288.66;4903562;29;19953;-73
2022/06/05 12:20:52;;;;;;;;;;;;;;;28.37;100.00;98278.91;4904099;29;19960;-73
2022/06/05 12:23:25;;;;;;;;;;;;;;;28.45;100.00;98277.09;4903753;29;19966;-73
2022/06/05 12:25:57;;;;;;;;;;;;;;;28.39;100.00;98262.69;4891296;29;19958;-73
2022/06/05 12:28:43;;;;;;;;;;;;;;;28.24;100.00;98256.41;4901214;29;19957;-73
2022/06/05 12:31:16;;;;;;;;;;;;;;;28.14;100.00;98254.28;4892488;29;19951;-72
2022/06/05 12:33:54;;;;;;;;;;;;;;;28.32;100.00;98250.91;4895464;29;19961;-73
2022/06/05 12:36:34;;;;;;;;;;;;;;;28.48;100.00;98244.41;4913034;29;19955;-73
2022/06/05 12:39:06;;;;;;;;;;;;;;;28.55;100.00;98243.91;4903145;29;19953;-73
2022/06/05 12:41:43;;;;;;;;;;;;;;;28.59;100.00;98239.47;4904011;29;19960;-73
2022/06/05 12:44:22;;;;;;;;;;;;;;;28.63;100.00;98237.13;4900743;29;19948;-73
2022/06/05 12:46:58;;;;;;;;;;;;;;;28.77;100.00;98229.56;4901542;29;19960;-73
2022/06/05 12:49:57;;;;;;;;;;;;;;;28.74;100.00;98224.06;4903452;29;19952;-73
2022/06/05 12:52:27;;;;;;;;;;;;;;;28.84;100.00;98210.97;4861982;29;19961;-73
2022/06/05 12:55:01;;;;;;;;;;;;;;;28.80;100.00;98214.13;4903142;29;19953;-72
2022/06/05 12:57:39;;;;;;;;;;;;;;;28.79;100.00;98211.75;4903103;29;19976;-73
2022/06/05 13:00:33;;;;;;;;;;;;;;;28.88;100.00;98195.00;4885232;29;19952;-73
2022/06/05 13:03:08;;;;;;;;;;;;;;;28.94;100.00;98181.41;4898208;29;20364;-73
2022/06/05 13:05:42;;;;;;;;;;;;;;;28.96;100.00;98178.78;4902921;29;20128;-73
2022/06/05 13:08:14;;;;;;;;;;;;;;;29.00;100.00;98167.78;4902165;29;19950;-73
2022/06/05 13:10:41;;;;;;;;;;;;;;;28.87;100.00;98153.16;4913855;29;19946;-73
2022/06/05 13:13:09;;;;;;;;;;;;;;;28.83;100.00;98146.88;4905010;29;19971;-73
2022/06/05 13:15:43;;;;;;;;;;;;;;;28.78;100.00;98126.75;4902924;29;19957;-73
2022/06/05 13:18:17;;;;;;;;;;;;;;;28.81;100.00;98119.91;4902560;29;19953;-73
2022/06/05 13:21:03;;;;;;;;;;;;;;;28.77;100.00;98114.44;4902492;29;19956;-73
2022/06/05 13:23:37;;;;;;;;;;;;;;;28.79;100.00;98093.75;4902835;29;19966;-72
2022/06/05 13:26:04;;;;;;;;;;;;;;;28.77;100.00;98087.75;4902817;29;19954;-73
2022/06/05 13:28:40;;;;;;;;;;;;;;;28.68;100.00;98094.59;4902790;29;19955;-73
2022/06/05 13:31:16;;;;;;;;;;;;;;;28.66;100.00;98085.66;4903338;29;19950;-73
2022/06/05 13:34:03;;;;;;;;;;;;;;;28.57;100.00;98077.28;4903050;29;19950;-73
2022/06/05 13:36:36;;;;;;;;;;;;;;;28.55;100.00;98072.06;4886297;29;19953;-73
2022/06/05 13:39:15;;;;;;;;;;;;;;;28.53;100.00;98053.75;4905105;29;19983;-73
2022/06/05 13:41:46;;;;;;;;;;;;;;;28.74;100.00;98063.69;4902687;29;19993;-73
2022/06/05 13:44:16;;;;;;;;;;;;;;;28.54;100.00;98058.19;4902669;29;19968;-73
2022/06/05 13:46:57;;;;;;;;;;;;;;;28.52;100.00;98049.31;4902902;29;19955;-73
2022/06/05 13:49:42;;;;;;;;;;;;;;;28.57;100.00;98046.44;4902296;29;19950;-73
2022/06/05 13:52:18;;;;;;;;;;;;;;;28.62;100.00;98057.19;4902395;29;19955;-73
2022/06/05 13:54:52;;;;;;;;;;;;;;;28.67;100.00;98044.09;4899971;29;19957;-73
2022/06/05 13:57:33;;;;;;;;;;;;;;;28.60;95.71;98033.91;4902008;29;20311;-73
2022/06/05 14:00:04;;;;;;;;;;;;;;;28.60;100.00;98027.34;4902633;29;19951;-73
2022/06/05 14:02:42;;;;;;;;;;;;;;;28.55;98.58;98025.25;4902438;29;19970;-73
2022/06/05 14:05:13;;;;;;;;;;;;;;;28.48;99.99;98023.69;4901519;29;20237;-73
2022/06/05 14:07:45;;;;;;;;;;;;;;;28.55;98.51;98010.84;4901402;29;20367;-72
2022/06/05 14:10:25;;;;;;;;;;;;;;;28.50;97.64;98020.28;4902037;29;20250;-73
2022/06/05 14:12:57;;;;;;;;;;;;;;;28.40;97.83;98002.53;4899530;29;19979;-73
2022/06/05 14:15:27;;;;;;;;;;;;;;;28.56;94.82;97993.06;4901694;29;20354;-73
2022/06/05 14:17:57;;;;;;;;;;;;;;;28.44;100.00;97997.28;4900583;29;19950;-72
2022/06/05 14:20:35;;;;;;;;;;;;;;;28.41;100.00;97989.72;4899959;29;19958;-73
2022/06/05 14:23:04;;;;;;;;;;;;;;;28.59;96.89;97991.22;4900631;29;19973;-73
2022/06/05 14:25:46;;;;;;;;;;;;;;;28.41;100.00;97988.94;4900718;29;20549;-73
2022/06/05 14:28:15;;;;;;;;;;;;;;;28.46;100.00;97996.78;4900647;29;19955;-73
2022/06/05 14:30:52;;;;;;;;;;;;;;;28.41;100.00;98009.06;4900514;29;19974;-72
2022/06/05 14:33:22;;;;;;;;;;;;;;;28.30;94.09;98009.84;4899339;29;19955;-72
2022/06/05 14:35:50;;;;;;;;;;;;;;;28.42;96.60;98013.50;4898713;29;19957;-73
2022/06/05 14:38:21;;;;;;;;;;;;;;;28.36;98.79;97993.38;4896148;29;19965;-73
2022/06/05 14:40:54;;;;;;;;;;;;;;;28.48;95.78;98000.69;4896921;29;20333;-73
2022/06/05 14:43:29;;;;;;;;;;;;;;;28.45;91.61;97998.06;4898519;29;19961;-73
2022/06/05 14:46:15;;;;;;;;;;;;;;;28.29;96.75;98007.53;4900631;29;19950;-73
2022/06/05 14:48:45;;;;;;;;;;;;;;;28.13;100.00;98009.09;4902014;29;20326;-73
2022/06/05 14:51:16;;;;;;;;;;;;;;;28.18;100.00;98016.13;4901616;29;19950;-72
2022/06/05 14:53:49;;;;;;;;;;;;;;;28.08;100.00;98011.97;4896915;29;19955;-73
2022/06/05 14:59:30;;;;;;;;;;;;;;;28.05;98.51;98031.03;4888570;29;19952;-73
2022/06/05 15:02:29;;;;;;;;;;;;;;;27.91;100.00;98041.47;4901382;29;19955;-73
2022/06/05 15:05:09;;;;;;;;;;;;;;;27.93;99.22;98061.84;4858248;29;19970;-73
2022/06/05 15:07:42;;;;;;;;;;;;;;;27.86;99.26;98065.25;4896301;29;19958;-73
2022/06/05 15:10:32;;;;;;;;;;;;;;;27.87;100.00;98066.81;4895867;29;19952;-73
2022/06/05 15:13:06;;;;;;;;;;;;;;;27.86;100.00;98091.09;4900516;29;20002;-73
2022/06/05 15:15:34;;;;;;;;;;;;;;;27.86;100.00;98076.75;4901863;29;19959;-73
2022/06/05 15:18:02;;;;;;;;;;;;;;;27.92;100.00;98086.16;4895239;29;19956;-72
2022/06/05 15:20:47;;;;;;;;;;;;;;;27.83;100.00;98079.84;4899180;29;19956;-73
2022/06/05 15:23:38;;;;;;;;;;;;;;;27.70;100.00;98085.34;4889735;29;19967;-73
2022/06/05 15:26:14;;;;;;;;;;;;;;;27.67;100.00;98081.41;4893840;29;19953;-73
2022/06/05 15:28:53;;;;;;;;;;;;;;;27.68;100.00;98087.94;4896429;29;19947;-73
2022/06/05 15:31:28;;;;;;;;;;;;;;;27.68;100.00;98094.44;4899515;29;19953;-73
2022/06/05 15:34:14;;;;;;;;;;;;;;;27.64;100.00;98087.38;4906918;29;20262;-72
2022/06/05 15:36:50;;;;;;;;;;;;;;;27.63;100.00;98100.19;4900681;29;19954;-73
2022/06/05 15:39:42;;;;;;;;;;;;;;;27.64;100.00;98102.53;4900275;29;19950;-73
2022/06/05 15:42:09;;;;;;;;;;;;;;;27.61;100.00;98094.19;4901084;29;19958;-73
2022/06/05 15:44:49;;;;;;;;;;;;;;;27.57;100.00;98091.56;4904180;29;19968;-73
2022/06/05 15:47:16;;;;;;;;;;;;;;;27.58;100.00;98096.03;4906919;29;19955;-73
2022/06/05 15:49:50;;;;;;;;;;;;;;;27.60;100.00;98104.91;4900273;29;19952;-73
2022/06/05 15:52:36;;;;;;;;;;;;;;;27.56;100.00;98092.84;4904070;29;19959;-73
2022/06/05 15:55:22;;;;;;;;;;;;;;;27.52;100.00;98080.06;4903788;29;19955;-73
2022/06/05 15:58:21;;;;;;;;;;;;;;;27.40;100.00;98090.72;4902848;29;19964;-73
2022/06/05 16:01:05;;;;;;;;;;;;;;;27.41;100.00;98080.81;4903999;29;21661;-73
2022/06/05 16:03:37;;;;;;;;;;;;;;;27.29;100.00;98079.94;4898039;29;19968;-73
2022/06/05 16:06:06;;;;;;;;;;;;;;;27.24;100.00;98071.34;4904255;29;19955;-73
2022/06/05 16:08:44;;;;;;;;;;;;;;;27.07;100.00;98054.00;4903595;29;20261;-73
2022/06/05 16:11:14;;;;;;;;;;;;;;;27.10;100.00;98049.31;4903478;29;19958;-73
2022/06/05 16:13:49;;;;;;;;;;;;;;;27.01;100.00;98035.22;4901435;29;19988;-73
2022/06/05 16:16:28;;;;;;;;;;;;;;;26.89;100.00;98025.78;4899203;29;19951;-73
2022/06/05 16:19:04;;;;;;;;;;;;;;;26.91;100.00;98019.50;4903554;29;19968;-73
2022/06/05 16:21:45;;;;;;;;;;;;;;;26.81;100.00;98021.03;4903234;29;19958;-73
2022/06/05 16:24:16;;;;;;;;;;;;;;;26.77;100.00;98009.00;4893979;29;19975;-73
2022/06/05 16:27:02;;;;;;;;;;;;;;;26.63;100.00;98011.50;4903437;29;19956;-73
2022/06/05 16:29:32;;;;;;;;;;;;;;;26.59;100.00;98025.31;4901476;29;19960;-73
2022/06/05 16:32:05;;;;;;;;;;;;;;;26.51;100.00;98034.91;4903119;29;19952;-73
2022/06/05 16:34:32;;;;;;;;;;;;;;;26.48;100.00;98036.72;4902904;29;19951;-73
2022/06/05 16:39:57;;;;;;;;;;;;;;;26.38;100.00;98041.09;4902127;29;19953;-73
2022/06/05 16:42:30;;;;;;;;;;;;;;;26.31;100.00;98063.72;4902647;29;19965;-73
2022/06/05 16:45:00;;;;;;;;;;;;;;;26.24;100.00;98067.81;4900059;29;19963;-72
2022/06/05 16:47:30;;;;;;;;;;;;;;;26.25;100.00;98060.00;4903255;29;19950;-74
2022/06/05 16:50:17;;;;;;;;;;;;;;;26.25;100.00;98063.66;4899916;29;19950;-72
2022/06/05 16:52:46;;;;;;;;;;;;;;;26.17;100.00;98064.63;4900202;29;19959;-72
2022/06/05 16:55:17;;;;;;;;;;;;;;;26.10;100.00;98063.00;4900494;29;19962;-72
2022/06/05 16:57:49;;;;;;;;;;;;;;;26.02;100.00;98071.25;4899463;29;19952;-73
2022/06/05 17:00:19;;;;;;;;;;;;;;;25.89;100.00;98070.09;4885044;29;19959;-72
2022/06/05 17:02:48;;;;;;;;;;;;;;;25.96;100.00;98072.50;4901722;29;19953;-72
2022/06/05 17:05:21;;;;;;;;;;;;;;;25.90;100.00;98061.00;4901821;29;19969;-72
2022/06/05 17:07:49;;;;;;;;;;;;;;;25.79;100.00;98051.53;4901947;29;19952;-72
2022/06/05 17:10:28;;;;;;;;;;;;;;;25.94;100.00;98060.78;4902432;29;20339;-71
2022/06/05 17:13:00;;;;;;;;;;;;;;;25.88;100.00;98051.34;4899993;29;19970;-72
2022/06/05 17:15:43;;;;;;;;;;;;;;;25.89;100.00;98061.50;4902858;29;20338;-72
2022/06/05 17:18:16;;;;;;;;;;;;;;;25.74;100.00;98067.38;4901694;29;19947;-72
2022/06/05 17:20:49;;;;;;;;;;;;;;;25.67;100.00;98085.00;4902386;29;19956;-73
2022/06/05 17:23:18;;;;;;;;;;;;;;;25.69;100.00;98087.34;4900169;29;20374;-72
2022/06/05 17:26:05;;;;;;;;;;;;;;;25.61;100.00;98083.34;4901688;29;20356;-72
2022/06/05 17:28:35;;;;;;;;;;;;;;;25.52;100.00;98100.69;4900527;29;19951;-72
2022/06/05 17:31:15;;;;;;;;;;;;;;;25.40;100.00;98099.75;4902235;29;20344;-72
2022/06/05 17:33:51;;;;;;;;;;;;;;;25.29;100.00;98109.00;4901288;29;19951;-72
2022/06/05 17:36:47;;;;;;;;;;;;;;;25.30;100.00;98104.06;4901839;29;19949;-73
2022/06/05 17:39:23;;;;;;;;;;;;;;;25.40;100.00;98111.22;4874639;29;19959;-73
2022/06/05 17:41:54;;;;;;;;;;;;;;;25.35;100.00;98112.72;4903081;29;20275;-73
2022/06/05 17:44:33;;;;;;;;;;;;;;;25.33;100.00;98095.25;4900865;29;19968;-72
2022/06/05 17:47:01;;;;;;;;;;;;;;;25.44;100.00;98100.31;4901818;29;19958;-73
2022/06/05 17:49:34;;;;;;;;;;;;;;;25.37;100.00;98092.97;4901870;29;19955;-74
2022/06/05 17:52:02;;;;;;;;;;;;;;;25.40;100.00;98097.69;4901788;29;20355;-73
2022/06/05 17:54:33;;;;;;;;;;;;;;;25.32;100.00;98093.69;4902543;29;19951;-73
2022/06/05 17:57:05;;;;;;;;;;;;;;;25.33;100.00;98094.47;4902529;29;19957;-73
2022/06/05 17:59:35;;;;;;;;;;;;;;;25.31;100.00;98100.69;4901089;29;19952;-73
2022/06/05 18:02:32;;;;;;;;;;;;;;;25.21;100.00;98093.53;4901601;29;19953;-73
2022/06/05 18:05:20;;;;;;;;;;;;;;;25.23;100.00;98085.25;4889252;29;19968;-73
2022/06/05 18:07:47;;;;;;;;;;;;;;;25.14;100.00;98107.47;4894109;29;19955;-74
2022/06/05 18:10:28;;;;;;;;;;;;;;;25.13;100.00;98098.13;4903716;29;19949;-73
2022/06/05 18:12:57;;;;;;;;;;;;;;;25.09;100.00;98109.00;4897472;29;19982;-73
2022/06/05 18:15:28;;;;;;;;;;;;;;;25.07;100.00;98116.50;4894672;29;19949;-73
2022/06/05 18:17:57;;;;;;;;;;;;;;;24.97;100.00;98127.28;4899328;29;19980;-73
2022/06/05 18:20:29;;;;;;;;;;;;;;;24.84;100.00;98126.06;4906514;29;19956;-73
2022/06/05 18:23:00;;;;;;;;;;;;;;;24.78;100.00;98123.13;4898956;29;19956;-73
2022/06/05 18:25:34;;;;;;;;;;;;;;;24.67;100.00;98128.66;4899876;29;19974;-73
2022/06/05 18:28:04;;;;;;;;;;;;;;;24.61;100.00;98131.44;4891243;29;19954;-73
2022/06/05 18:30:39;;;;;;;;;;;;;;;24.58;100.00;98123.03;4899651;29;20339;-73
2022/06/05 18:33:13;;;;;;;;;;;;;;;24.49;100.00;98106.03;4895963;29;19955;-75
2022/06/05 18:38:29;;;;;;;;;;;;;;;24.43;100.00;98096.59;4899536;29;20018;-74
2022/06/05 18:40:57;;;;;;;;;;;;;;;24.42;100.00;98101.50;4896420;29;19943;-72
2022/06/05 18:43:27;;;;;;;;;;;;;;;24.39;100.00;98099.63;4900355;29;19944;-74
2022/06/05 18:45:54;;;;;;;;;;;;;;;24.30;100.00;98104.69;4895736;29;19975;-73
2022/06/05 18:48:24;;;;;;;;;;;;;;;24.26;100.00;98106.97;4894644;29;19959;-72
2022/06/05 18:50:58;;;;;;;;;;;;;;;24.24;100.00;98101.72;4900551;29;20245;-72
2022/06/05 18:53:27;;;;;;;;;;;;;;;24.13;100.00;98110.88;4884691;29;19958;-72
2022/06/05 18:55:55;;;;;;;;;;;;;;;24.03;100.00;98115.13;4899772;29;19958;-73
2022/06/05 18:58:29;;;;;;;;;;;;;;;23.94;100.00;98118.06;4900633;29;19959;-72
2022/06/05 19:00:56;;;;;;;;;;;;;;;23.79;100.00;98117.28;4900310;29;19952;-73
2022/06/05 19:03:28;;;;;;;;;;;;;;;23.67;100.00;98132.59;4901224;29;19956;-73
2022/06/05 19:05:56;;;;;;;;;;;;;;;23.57;100.00;98139.72;4882341;29;19975;-73
2022/06/05 19:08:36;;;;;;;;;;;;;;;23.51;100.00;98153.06;4884941;29;19949;-74
2022/06/05 19:11:06;;;;;;;;;;;;;;;23.36;100.00;98153.03;4899771;29;19957;-72
2022/06/05 19:13:41;;;;;;;;;;;;;;;23.27;100.00;98158.00;4896880;29;20253;-73
2022/06/05 19:16:28;;;;;;;;;;;;;;;23.13;100.00;98153.03;4884854;29;19962;-72
2022/06/05 19:19:14;;;;;;;;;;;;;;;22.97;100.00;98154.22;4901885;29;19952;-72
2022/06/05 19:21:47;;;;;;;;;;;;;;;22.84;100.00;98160.16;4903522;29;19952;-71
2022/06/05 19:24:17;;;;;;;;;;;;;;;22.80;100.00;98162.41;4903859;29;19964;-72
2022/06/05 19:26:44;;;;;;;;;;;;;;;22.78;100.00;98167.81;4904220;29;19963;-72
2022/06/05 19:29:14;;;;;;;;;;;;;;;22.77;100.00;98174.78;4903963;29;19951;-72
